Time;durP1;ratioP1;P1;durP2;ratioP2;P2;SDS_P1;SDS_P2;PMS_P1;PMS_P2;Temp;Humidity;BMP_temperature;BMP_pressure;BME280_temperature;BME280_humidity;BME280_pressure;Samples;Min_cycle;Max_cycle;Signal;HPM_P1;HPM_P2
2022/03/27 00:01:13;;;;;;;5.55;3.15;;;6.20;99.90;;;;;;5098327;28;20063;-75
2022/03/27 00:03:39;;;;;;;6.85;3.30;;;6.30;99.90;;;;;;5081881;28;20048;-74
2022/03/27 00:06:05;;;;;;;6.78;3.58;;;6.20;99.90;;;;;;5117176;28;20047;-75
2022/03/27 00:08:30;;;;;;;5.68;3.63;;;6.20;99.90;;;;;;5081574;28;20047;-75
2022/03/27 00:13:40;;;;;;;8.05;4.22;;;6.20;99.90;;;;;;5098949;28;20052;-74
2022/03/27 00:16:08;;;;;;;8.98;4.22;;;6.30;99.90;;;;;;5116155;28;20055;-74
2022/03/27 00:18:33;;;;;;;7.97;3.78;;;6.20;99.90;;;;;;5117144;28;20043;-75
2022/03/27 00:20:59;;;;;;;11.90;4.97;;;6.20;99.90;;;;;;5098499;28;20054;-74
2022/03/27 00:23:25;;;;;;;9.27;4.55;;;6.20;99.90;;;;;;5080972;28;20043;-75
2022/03/27 00:25:51;;;;;;;8.38;4.38;;;6.20;99.90;;;;;;5116836;28;20039;-75
2022/03/27 00:28:17;;;;;;;8.13;4.22;;;6.20;99.90;;;;;;5098394;28;20081;-75
2022/03/27 00:30:43;;;;;;;9.60;4.40;;;6.20;99.90;;;;;;5097541;28;20055;-74
2022/03/27 00:33:09;;;;;;;7.35;4.30;;;6.20;99.90;;;;;;5115606;28;20028;-75
2022/03/27 00:35:34;;;;;;;8.82;4.40;;;6.20;99.90;;;;;;5097789;28;20551;-75
2022/03/27 00:38:00;;;;;;;11.30;4.70;;;6.30;99.90;;;;;;5081619;28;20105;-75
2022/03/27 00:40:26;;;;;;;7.35;4.53;;;6.20;99.90;;;;;;5098090;28;20070;-75
2022/03/27 00:42:52;;;;;;;10.88;4.38;;;6.30;99.90;;;;;;5097733;28;20035;-74
2022/03/27 00:45:17;;;;;;;7.93;3.90;;;6.20;99.90;;;;;;5116562;28;20047;-75
2022/03/27 00:47:44;;;;;;;12.90;5.10;;;6.30;99.90;;;;;;5098144;28;20039;-75
2022/03/27 00:50:10;;;;;;;9.32;4.68;;;6.30;99.90;;;;;;5097198;28;20106;-75
2022/03/27 00:52:36;;;;;;;11.25;5.07;;;6.30;99.90;;;;;;5116509;28;20043;-75
2022/03/27 00:55:03;;;;;;;11.60;4.72;;;6.30;99.90;;;;;;5116399;28;20505;-74
2022/03/27 00:57:30;;;;;;;14.10;6.10;;;6.30;99.90;;;;;;5097164;28;20502;-75
2022/03/27 00:59:56;;;;;;;13.35;6.80;;;6.30;99.90;;;;;;5116019;28;20519;-75
2022/03/27 01:02:24;;;;;;;9.93;5.68;;;6.30;99.90;;;;;;5097872;28;20429;-75
2022/03/27 01:04:55;;;;;;;12.25;5.47;;;6.20;99.90;;;;;;5115411;28;20047;-75
2022/03/27 01:07:21;;;;;;;11.88;6.28;;;6.30;99.90;;;;;;5097932;28;20054;-75
2022/03/27 01:09:47;;;;;;;12.10;5.68;;;6.30;99.90;;;;;;5098098;28;20039;-75
2022/03/27 01:12:19;;;;;;;13.07;6.28;;;6.30;99.90;;;;;;5115064;28;20062;-75
2022/03/27 01:14:45;;;;;;;16.38;6.20;;;6.30;99.90;;;;;;5115760;28;20535;-75
2022/03/27 01:17:15;;;;;;;12.50;6.22;;;6.30;99.90;;;;;;5116021;28;20052;-74
2022/03/27 01:19:47;;;;;;;14.30;6.85;;;6.40;99.90;;;;;;5096827;28;20043;-74
2022/03/27 01:22:14;;;;;;;18.73;6.57;;;6.30;99.90;;;;;;5115908;28;20391;-74
2022/03/27 01:24:41;;;;;;;14.73;6.30;;;6.30;99.90;;;;;;5114818;28;20093;-74
2022/03/27 01:27:07;;;;;;;12.55;7.07;;;6.30;99.90;;;;;;5115708;28;20068;-74
2022/03/27 01:29:34;;;;;;;12.15;6.15;;;6.30;99.90;;;;;;5115525;28;20119;-74
2022/03/27 01:32:00;;;;;;;14.35;6.07;;;6.30;99.90;;;;;;5096586;28;20519;-74
2022/03/27 01:34:26;;;;;;;11.30;6.35;;;6.30;99.90;;;;;;5097274;28;20047;-74
2022/03/27 01:36:52;;;;;;;13.35;6.00;;;6.30;99.90;;;;;;5115621;28;20169;-74
2022/03/27 01:39:18;;;;;;;15.68;6.70;;;6.40;99.90;;;;;;5096198;28;20080;-74
2022/03/27 01:41:44;;;;;;;11.98;6.53;;;6.40;99.90;;;;;;5115301;28;20054;-74
2022/03/27 01:44:17;;;;;;;15.35;6.35;;;6.40;99.90;;;;;;5115144;28;20039;-75
2022/03/27 01:46:44;;;;;;;17.30;7.88;;;6.40;99.90;;;;;;5096214;28;20471;-74
2022/03/27 01:49:12;;;;;;;18.42;7.25;;;6.40;99.90;;;;;;5115251;28;20043;-75
2022/03/27 01:51:39;;;;;;;17.17;8.35;;;6.40;99.90;;;;;;5115080;28;20403;-75
2022/03/27 01:54:05;;;;;;;20.25;7.28;;;6.40;99.90;;;;;;5096056;28;20135;-74
2022/03/27 01:56:32;;;;;;;19.00;7.50;;;6.40;99.90;;;;;;5096859;28;20043;-75
2022/03/27 01:58:58;;;;;;;17.30;7.20;;;6.40;99.90;;;;;;5096742;28;20052;-75
2022/03/27 02:01:24;;;;;;;19.98;7.28;;;6.40;99.90;;;;;;5114021;28;20483;-74
2022/03/27 02:03:50;;;;;;;18.80;7.18;;;6.40;99.90;;;;;;5096762;28;20097;-74
2022/03/27 02:06:17;;;;;;;16.60;7.05;;;6.40;99.90;;;;;;5096557;28;20057;-74
2022/03/27 02:08:44;;;;;;;14.07;7.07;;;6.40;99.90;;;;;;5095765;28;20474;-74
2022/03/27 02:11:09;;;;;;;23.60;8.85;;;6.40;99.90;;;;;;5096529;28;20105;-74
2022/03/27 02:13:36;;;;;;;19.25;8.43;;;6.40;99.90;;;;;;5114904;28;20044;-74
2022/03/27 02:16:03;;;;;;;15.18;7.95;;;6.40;99.90;;;;;;5113946;28;20487;-75
2022/03/27 02:18:30;;;;;;;20.40;8.50;;;6.30;99.90;;;;;;5096676;28;20380;-75
2022/03/27 02:20:57;;;;;;;27.33;9.65;;;6.40;99.90;;;;;;5095816;28;20134;-75
2022/03/27 02:23:24;;;;;;;16.35;8.25;;;6.40;99.90;;;;;;5096512;28;20403;-74
2022/03/27 02:25:51;;;;;;;17.92;7.93;;;6.40;99.90;;;;;;5096321;28;20039;-74
2022/03/27 02:28:18;;;;;;;13.75;7.38;;;6.40;99.90;;;;;;5114296;28;20380;-75
2022/03/27 02:30:44;;;;;;;19.02;8.95;;;6.40;99.90;;;;;;5114469;28;20047;-75
2022/03/27 02:33:10;;;;;;;25.88;9.15;;;6.40;99.90;;;;;;5114296;28;20040;-75
2022/03/27 02:35:36;;;;;;;16.95;8.25;;;6.40;99.90;;;;;;5113567;28;20500;-74
2022/03/27 02:38:05;;;;;;;31.67;8.77;;;6.40;99.90;;;;;;5114173;28;20085;-74
2022/03/27 02:40:36;;;;;;;15.38;7.57;;;6.40;99.90;;;;;;5096083;28;20096;-74
2022/03/27 02:43:02;;;;;;;19.67;7.82;;;6.30;99.90;;;;;;5113535;28;20122;-75
2022/03/27 02:45:29;;;;;;;19.23;7.22;;;6.30;99.90;;;;;;5096001;28;20046;-74
2022/03/27 02:47:56;;;;;;;17.98;7.85;;;6.30;99.90;;;;;;5096286;28;20168;-74
2022/03/27 02:50:22;;;;;;;20.42;7.57;;;6.30;99.90;;;;;;5078276;28;20059;-75
2022/03/27 02:52:48;;;;;;;22.55;8.52;;;6.30;99.90;;;;;;5096046;28;20051;-75
2022/03/27 02:55:14;;;;;;;22.23;8.30;;;6.20;99.90;;;;;;5113599;28;20062;-74
2022/03/27 02:57:40;;;;;;;23.98;8.25;;;6.20;99.90;;;;;;5095022;28;20050;-74
2022/03/27 03:00:08;;;;;;;18.60;7.72;;;6.20;99.90;;;;;;5114116;28;20421;-74
2022/03/27 03:02:35;;;;;;;17.90;8.02;;;6.20;99.90;;;;;;5114143;28;20055;-75
2022/03/27 03:05:02;;;;;;;17.42;7.22;;;6.20;99.90;;;;;;5113010;28;20050;-75
2022/03/27 03:07:28;;;;;;;15.18;7.32;;;6.20;99.90;;;;;;5095628;28;20407;-74
2022/03/27 03:09:54;;;;;;;25.73;7.47;;;6.20;99.90;;;;;;5078826;28;20112;-74
2022/03/27 03:12:20;;;;;;;20.48;8.18;;;6.20;99.90;;;;;;5113286;28;20390;-75
2022/03/27 03:14:46;;;;;;;18.23;7.45;;;6.10;99.90;;;;;;5095763;28;20044;-75
2022/03/27 03:17:12;;;;;;;14.65;7.57;;;6.10;99.90;;;;;;5113218;28;20433;-75
2022/03/27 03:19:38;;;;;;;16.55;6.75;;;6.10;99.90;;;;;;5113741;28;20038;-74
2022/03/27 03:22:05;;;;;;;20.95;8.15;;;6.10;99.90;;;;;;5095720;28;20050;-74
2022/03/27 03:24:30;;;;;;;16.38;6.13;;;6.10;99.90;;;;;;5113132;28;20440;-74
2022/03/27 03:26:57;;;;;;;16.60;6.45;;;6.00;99.90;;;;;;5113725;28;20059;-75
2022/03/27 03:29:23;;;;;;;15.35;6.15;;;6.10;99.90;;;;;;5095631;28;20104;-74
2022/03/27 03:31:50;;;;;;;13.73;5.50;;;6.00;99.90;;;;;;5094963;28;20394;-75
2022/03/27 03:34:16;;;;;;;15.80;6.72;;;6.00;99.90;;;;;;5095296;28;20040;-74
2022/03/27 03:36:43;;;;;;;19.63;6.38;;;6.00;99.90;;;;;;5113780;28;20044;-75
2022/03/27 03:39:10;;;;;;;18.40;6.03;;;6.00;99.90;;;;;;5094818;28;20451;-75
2022/03/27 03:41:35;;;;;;;22.25;6.25;;;6.00;99.90;;;;;;5113498;28;20073;-75
2022/03/27 03:44:01;;;;;;;18.95;6.45;;;6.00;99.90;;;;;;5113440;28;20039;-75
2022/03/27 03:46:27;;;;;;;15.80;5.90;;;6.00;99.90;;;;;;5112722;28;20075;-74
2022/03/27 03:48:53;;;;;;;18.02;5.72;;;5.90;99.90;;;;;;5113683;28;20049;-74
2022/03/27 03:51:19;;;;;;;17.95;6.43;;;5.90;99.90;;;;;;5095111;28;20090;-74
2022/03/27 03:53:45;;;;;;;19.70;6.25;;;5.90;99.90;;;;;;5112897;28;20071;-74
2022/03/27 03:56:11;;;;;;;22.77;6.28;;;6.00;99.90;;;;;;5095516;28;20036;-74
2022/03/27 03:58:37;;;;;;;15.07;5.97;;;5.90;99.90;;;;;;5095185;28;20070;-74
2022/03/27 04:01:03;;;;;;;17.48;6.45;;;5.90;99.90;;;;;;5112435;28;20051;-74
2022/03/27 04:03:30;;;;;;;22.65;6.55;;;5.90;99.90;;;;;;5113485;28;20058;-75
2022/03/27 04:05:56;;;;;;;12.27;6.30;;;5.90;99.90;;;;;;5113861;28;20498;-74
2022/03/27 04:08:22;;;;;;;21.38;6.65;;;5.90;99.90;;;;;;5116568;28;20039;-74
2022/03/27 04:10:48;;;;;;;20.83;6.35;;;5.90;99.90;;;;;;5117132;28;20483;-74
2022/03/27 04:13:15;;;;;;;14.80;6.53;;;5.80;99.90;;;;;;5117265;28;20386;-74
2022/03/27 04:15:41;;;;;;;14.75;6.15;;;5.70;99.90;;;;;;5116289;28;20055;-74
2022/03/27 04:18:07;;;;;;;15.40;6.07;;;5.70;99.90;;;;;;5116889;28;20036;-74
2022/03/27 04:20:34;;;;;;;12.82;6.32;;;5.70;99.90;;;;;;5116051;28;20406;-74
2022/03/27 04:23:01;;;;;;;19.17;6.28;;;5.60;99.90;;;;;;5081917;28;20203;-74
2022/03/27 04:25:27;;;;;;;17.27;6.22;;;5.60;99.90;;;;;;5116856;28;20085;-74
2022/03/27 04:27:53;;;;;;;12.75;5.60;;;5.50;99.90;;;;;;5097867;28;20048;-74
2022/03/27 04:30:20;;;;;;;17.65;6.40;;;5.40;99.90;;;;;;5081711;28;20054;-74
2022/03/27 04:32:47;;;;;;;24.40;6.15;;;5.40;99.90;;;;;;5116920;28;20123;-74
2022/03/27 04:35:14;;;;;;;19.23;6.25;;;5.40;99.90;;;;;;5097744;28;20057;-74
2022/03/27 04:37:46;;;;;;;16.33;5.55;;;5.30;99.90;;;;;;5098686;28;20395;-74
2022/03/27 04:40:13;;;;;;;11.23;5.53;;;5.20;99.90;;;;;;5116674;28;20044;-74
2022/03/27 04:42:40;;;;;;;11.07;5.60;;;5.10;99.90;;;;;;5097766;28;20100;-74
2022/03/27 04:45:06;;;;;;;12.43;5.95;;;5.10;99.90;;;;;;5098316;28;20039;-74
2022/03/27 04:47:32;;;;;;;19.48;6.45;;;5.00;99.90;;;;;;5116299;28;20514;-74
2022/03/27 04:49:58;;;;;;;9.15;4.93;;;4.90;99.90;;;;;;5097333;28;20047;-74
2022/03/27 04:52:24;;;;;;;10.10;3.92;;;4.80;99.90;;;;;;5098376;28;20043;-74
2022/03/27 04:54:50;;;;;;;17.40;5.45;;;4.80;99.90;;;;;;5098131;28;20043;-74
2022/03/27 04:57:16;;;;;;;11.52;5.85;;;4.70;99.90;;;;;;5097088;28;20047;-74
2022/03/27 04:59:42;;;;;;;13.07;4.30;;;4.70;99.90;;;;;;5081108;28;20079;-74
2022/03/27 05:02:08;;;;;;;14.40;4.13;;;4.70;99.90;;;;;;5116309;28;20082;-74
2022/03/27 05:04:34;;;;;;;9.80;5.20;;;4.60;99.90;;;;;;5115461;28;20440;-74
2022/03/27 05:06:59;;;;;;;13.75;3.80;;;4.60;99.90;;;;;;5097860;28;20468;-74
2022/03/27 05:09:25;;;;;;;19.38;5.82;;;4.60;99.90;;;;;;5097828;28;20046;-74
2022/03/27 05:11:51;;;;;;;18.77;5.93;;;4.60;99.90;;;;;;5115114;28;20096;-74
2022/03/27 05:14:17;;;;;;;16.67;5.72;;;4.50;99.90;;;;;;5115822;28;20047;-74
2022/03/27 05:16:42;;;;;;;17.33;5.60;;;4.50;99.90;;;;;;5115011;28;20043;-74
2022/03/27 05:19:08;;;;;;;30.80;7.38;;;4.50;99.90;;;;;;5080427;28;20044;-74
2022/03/27 05:21:35;;;;;;;44.90;8.23;;;4.50;99.90;;;;;;5097552;28;20487;-74
2022/03/27 05:24:01;;;;;;;63.85;8.73;;;4.50;99.90;;;;;;5096841;28;20364;-74
2022/03/27 05:26:27;;;;;;;89.30;8.23;;;4.60;99.90;;;;;;5097596;28;20051;-74
2022/03/27 05:28:54;;;;;;;186.15;14.05;;;4.60;99.90;;;;;;5097470;28;20039;-74
2022/03/27 05:31:21;;;;;;;51.72;7.80;;;4.60;99.90;;;;;;5114677;28;20524;-74
2022/03/27 05:33:47;;;;;;;64.30;8.60;;;4.60;99.90;;;;;;5097625;28;20073;-74
2022/03/27 05:36:13;;;;;;;74.80;8.90;;;4.60;99.90;;;;;;5097325;28;20047;-74
2022/03/27 05:38:40;;;;;;;174.73;12.45;;;4.60;99.90;;;;;;5096718;28;20402;-74
2022/03/27 05:41:12;;;;;;;154.85;9.65;;;4.70;99.90;;;;;;5097210;28;20055;-74
2022/03/27 05:43:38;;;;;;;105.53;8.75;;;4.70;99.90;;;;;;5097032;28;20044;-74
2022/03/27 05:46:04;;;;;;;134.55;8.55;;;4.70;99.90;;;;;;5079398;28;20051;-74
2022/03/27 05:48:30;;;;;;;119.30;7.15;;;4.70;99.90;;;;;;5115208;28;20032;-74
2022/03/27 05:50:56;;;;;;;208.35;11.23;;;4.70;99.90;;;;;;5114846;28;20142;-74
2022/03/27 05:53:22;;;;;;;93.68;6.63;;;4.70;99.90;;;;;;5114336;28;20456;-74
2022/03/27 05:55:48;;;;;;;190.73;9.77;;;4.70;99.90;;;;;;5114983;28;20043;-74
2022/03/27 05:58:15;;;;;;;102.68;6.28;;;4.60;99.90;;;;;;5097634;28;20071;-74
2022/03/27 06:00:41;;;;;;;52.97;5.60;;;4.70;99.90;;;;;;5095966;28;20051;-74
2022/03/27 06:03:07;;;;;;;98.95;7.70;;;4.60;99.90;;;;;;5096471;28;20044;-74
2022/03/27 06:05:33;;;;;;;63.00;6.40;;;4.60;99.90;;;;;;5096972;28;20043;-74
2022/03/27 06:07:59;;;;;;;38.88;6.28;;;4.60;99.90;;;;;;5096049;28;20368;-74
2022/03/27 06:10:31;;;;;;;55.20;5.38;;;4.60;99.90;;;;;;5114959;28;20112;-74
2022/03/27 06:12:58;;;;;;;50.42;5.10;;;4.60;99.90;;;;;;5096497;28;20378;-74
2022/03/27 06:15:24;;;;;;;51.75;5.13;;;4.60;99.90;;;;;;5096720;28;20047;-74
2022/03/27 06:17:52;;;;;;;41.92;3.83;;;4.50;99.90;;;;;;5096791;28;20126;-74
2022/03/27 06:20:23;;;;;;;50.60;4.45;;;4.50;99.90;;;;;;5113710;28;20439;-74
2022/03/27 06:22:49;;;;;;;66.40;5.07;;;4.50;99.90;;;;;;5079992;28;20104;-74
2022/03/27 06:25:18;;;;;;;24.05;4.53;;;4.50;99.90;;;;;;5079390;28;20086;-74
2022/03/27 06:27:45;;;;;;;6.07;3.60;;;4.50;99.90;;;;;;5113578;28;20100;-74
2022/03/27 06:30:15;;;;;;;7.80;4.38;;;4.50;99.90;;;;;;5113492;28;20513;-74
2022/03/27 06:32:42;;;;;;;9.23;4.50;;;4.50;99.90;;;;;;5096584;28;20126;-74
2022/03/27 06:35:10;;;;;;;11.57;4.53;;;4.60;99.90;;;;;;5113563;28;20108;-74
2022/03/27 06:37:40;;;;;;;6.00;4.60;;;4.60;99.90;;;;;;5096201;28;20483;-74
2022/03/27 06:40:08;;;;;;;10.13;4.45;;;4.70;99.90;;;;;;5095963;28;20181;-74
2022/03/27 06:42:35;;;;;;;11.98;5.25;;;4.70;99.90;;;;;;5095547;28;20058;-74
2022/03/27 06:45:01;;;;;;;23.15;5.55;;;4.80;99.90;;;;;;5114387;28;20100;-74
2022/03/27 06:47:27;;;;;;;14.45;5.20;;;4.90;99.90;;;;;;5096301;28;20050;-74
2022/03/27 06:49:56;;;;;;;10.73;5.10;;;5.00;99.90;;;;;;5112932;28;20060;-74
2022/03/27 06:52:23;;;;;;;37.90;7.40;;;5.10;99.90;;;;;;5096230;28;20044;-74
2022/03/27 06:54:49;;;;;;;24.63;6.25;;;5.20;99.90;;;;;;5095723;28;20047;-74
2022/03/27 06:57:15;;;;;;;33.38;6.57;;;5.30;99.90;;;;;;5095324;28;20046;-74
2022/03/27 07:05:14;;;;;;;28.08;7.03;;;5.80;99.90;;;;;;5095990;28;20051;-74
2022/03/27 07:07:41;;;;;;;37.10;6.45;;;5.90;99.90;;;;;;5096024;28;20399;-74
2022/03/27 07:10:07;;;;;;;43.00;8.18;;;5.90;99.90;;;;;;5113155;28;20077;-74
2022/03/27 07:12:33;;;;;;;38.58;7.57;;;6.00;99.90;;;;;;5095616;28;20222;-74
2022/03/27 07:14:59;;;;;;;41.35;7.43;;;6.10;99.90;;;;;;5095953;28;20032;-74
2022/03/27 07:17:25;;;;;;;47.42;7.53;;;6.20;99.90;;;;;;5094661;28;20089;-74
2022/03/27 07:19:52;;;;;;;43.60;6.93;;;6.30;99.90;;;;;;5095716;28;20047;-74
2022/03/27 07:22:18;;;;;;;38.22;6.72;;;6.30;99.90;;;;;;5113761;28;20043;-74
2022/03/27 07:24:45;;;;;;;41.67;7.32;;;6.30;99.90;;;;;;5112898;28;20035;-74
2022/03/27 07:27:12;;;;;;;49.75;8.43;;;6.40;99.90;;;;;;5095602;28;20051;-74
2022/03/27 07:29:38;;;;;;;35.58;6.28;;;6.40;99.90;;;;;;5095641;28;20051;-74
2022/03/27 07:32:05;;;;;;;36.20;7.65;;;6.50;99.90;;;;;;5112836;28;20054;-74
2022/03/27 07:34:35;;;;;;;44.50;7.72;;;6.60;99.90;;;;;;5095682;28;20417;-74
2022/03/27 07:37:02;;;;;;;32.58;6.70;;;6.70;99.90;;;;;;5095486;28;20055;-74
2022/03/27 07:39:28;;;;;;;41.40;7.32;;;6.90;99.90;;;;;;5112770;28;20548;-74
2022/03/27 07:41:54;;;;;;;44.72;7.72;;;7.00;99.90;;;;;;5097649;28;20051;-74
2022/03/27 07:44:20;;;;;;;38.13;6.97;;;7.10;99.90;;;;;;5117888;28;20115;-74
2022/03/27 07:46:48;;;;;;;24.75;5.97;;;7.20;99.90;;;;;;5098406;28;20502;-74
2022/03/27 07:49:14;;;;;;;39.85;7.75;;;7.30;99.90;;;;;;5117510;28;20035;-74
2022/03/27 07:51:40;;;;;;;40.65;7.22;;;7.30;99.90;;;;;;5098166;28;20107;-74
2022/03/27 07:54:06;;;;;;;35.05;6.40;;;7.40;99.90;;;;;;5117607;28;20070;-74
2022/03/27 07:56:32;;;;;;;32.17;6.88;;;7.50;99.90;;;;;;5099532;28;20126;-75
2022/03/27 07:58:57;;;;;;;47.70;8.55;;;7.60;99.90;;;;;;5081420;28;20181;-74
2022/03/27 08:01:24;;;;;;;44.00;7.93;;;7.60;99.90;;;;;;5098964;28;20134;-74
2022/03/27 08:03:51;;;;;;;30.25;5.82;;;7.70;99.90;;;;;;5099123;28;20058;-74
2022/03/27 08:06:17;;;;;;;41.00;7.35;;;7.90;99.90;;;;;;5098213;28;20087;-74
2022/03/27 08:08:43;;;;;;;36.35;7.20;;;8.00;99.90;;;;;;5099014;28;20152;-74
2022/03/27 08:11:09;;;;;;;42.78;7.90;;;8.10;99.90;;;;;;5099266;28;20059;-74
2022/03/27 08:13:36;;;;;;;33.72;7.10;;;8.20;99.90;;;;;;5098442;28;20051;-74
2022/03/27 08:16:01;;;;;;;39.08;7.88;;;8.20;99.90;;;;;;5098806;28;20086;-74
2022/03/27 08:18:27;;;;;;;41.55;8.52;;;8.20;99.90;;;;;;5117055;28;20085;-74
2022/03/27 08:20:53;;;;;;;34.15;6.28;;;8.30;99.90;;;;;;5097701;28;20051;-74
2022/03/27 08:23:19;;;;;;;36.85;7.10;;;8.30;99.90;;;;;;5117114;28;20058;-74
2022/03/27 08:28:29;;;;;;;35.97;6.75;;;8.40;99.90;;;;;;5097815;28;20052;-74
2022/03/27 08:30:55;;;;;;;36.20;7.68;;;8.50;99.90;;;;;;5098583;28;20044;-74
2022/03/27 08:33:21;;;;;;;40.65;8.52;;;8.50;99.90;;;;;;5098602;28;20040;-74
2022/03/27 08:35:47;;;;;;;49.38;9.40;;;8.60;99.90;;;;;;5115929;28;20047;-74
2022/03/27 08:38:15;;;;;;;39.15;7.53;;;8.60;99.90;;;;;;5098370;28;20518;-74
2022/03/27 08:40:44;;;;;;;45.47;8.45;;;8.80;99.90;;;;;;5115906;28;20047;-75
2022/03/27 08:43:14;;;;;;;34.53;7.65;;;8.80;99.90;;;;;;5098172;28;20044;-74
2022/03/27 08:45:42;;;;;;;37.53;7.72;;;8.90;99.90;;;;;;5116825;28;20056;-74
2022/03/27 08:48:09;;;;;;;38.72;8.68;;;9.00;99.90;;;;;;5097429;28;20058;-74
2022/03/27 08:51:06;;;;;;;38.08;8.93;;;9.00;99.90;;;;;;5097742;28;20051;-74
2022/03/27 08:53:49;;;;;;;37.58;7.65;;;9.20;99.90;;;;;;5097479;28;20071;-74
2022/03/27 08:56:15;;;;;;;32.10;6.20;;;9.30;99.90;;;;;;5097390;28;20161;-75
2022/03/27 08:58:42;;;;;;;32.90;6.13;;;9.40;99.90;;;;;;5116271;28;20043;-73
2022/03/27 09:01:09;;;;;;;38.25;7.15;;;9.40;99.90;;;;;;5097787;28;20062;-74
2022/03/27 09:03:35;;;;;;;36.65;7.25;;;9.40;99.90;;;;;;5097302;28;20090;-74
2022/03/27 09:06:01;;;;;;;44.53;9.60;;;9.50;99.90;;;;;;5116081;28;20468;-74
2022/03/27 09:08:29;;;;;;;40.97;8.95;;;9.50;99.90;;;;;;5097764;28;20126;-74
2022/03/27 09:10:56;;;;;;;40.80;8.05;;;9.70;99.90;;;;;;5096991;28;20054;-74
2022/03/27 09:13:23;;;;;;;42.53;7.60;;;9.70;99.90;;;;;;5115976;28;20118;-74
2022/03/27 09:16:00;;;;;;;30.63;6.78;;;9.80;99.90;;;;;;5097661;28;20052;-74
2022/03/27 09:18:39;;;;;;;41.38;7.85;;;9.80;99.90;;;;;;5097442;28;20051;-73
2022/03/27 09:21:05;;;;;;;44.38;8.75;;;9.80;99.90;;;;;;5097381;28;20051;-74
2022/03/27 09:23:31;;;;;;;33.72;7.50;;;9.90;99.90;;;;;;5114957;28;20131;-73
2022/03/27 09:26:00;;;;;;;38.30;9.48;;;10.00;99.90;;;;;;5097654;28;20043;-74
2022/03/27 09:29:05;;;;;;;44.83;8.75;;;10.10;99.90;;;;;;5115758;28;20042;-74
2022/03/27 09:31:31;;;;;;;51.28;10.07;;;10.20;99.90;;;;;;5114765;28;20388;-74
2022/03/27 09:34:00;;;;;;;32.25;7.00;;;10.30;99.90;;;;;;5115723;28;20421;-74
2022/03/27 09:36:35;;;;;;;37.20;7.63;;;10.40;99.90;;;;;;5097453;28;20043;-73
2022/03/27 09:39:05;;;;;;;;;;;10.50;99.90;;;;;;5115342;28;20043;-73
2022/03/27 09:41:41;;;;;;;40.25;7.65;;;10.50;99.90;;;;;;5115524;28;19919;-74
2022/03/27 09:44:13;;;;;;;38.78;7.07;;;10.50;99.90;;;;;;5114629;28;20105;-74
2022/03/27 09:46:58;;;;;;;31.58;6.82;;;10.60;99.90;;;;;;5097194;28;20051;-74
2022/03/27 09:49:25;;;;;;;41.80;8.63;;;10.70;99.90;;;;;;5079910;28;20039;-75
2022/03/27 09:52:08;;;;;;;36.33;7.90;;;10.80;99.90;;;;;;5079237;28;20139;-74
2022/03/27 09:54:56;;;;;;;42.95;9.30;;;10.90;99.90;;;;;;5097306;28;20048;-74
2022/03/27 09:57:40;;;;;;;34.30;7.53;;;11.00;99.90;;;;;;5097081;28;20043;-74
2022/03/27 10:00:13;;;;;;;31.13;7.18;;;11.00;99.90;;;;;;5114168;28;20035;-74
2022/03/27 10:02:40;;;;;;;40.40;8.15;;;11.00;99.90;;;;;;5096751;28;20059;-73
2022/03/27 10:05:08;;;;;;;30.10;6.32;;;11.10;99.90;;;;;;5113805;28;20036;-74
2022/03/27 10:07:44;;;;;;;40.65;8.10;;;11.10;99.90;;;;;;5115095;28;20039;-73
2022/03/27 10:10:18;;;;;;;32.65;7.53;;;11.20;99.90;;;;;;5114728;28;20043;-73
2022/03/27 10:12:46;;;;;;;34.72;8.60;;;11.20;99.90;;;;;;5114121;28;20078;-74
2022/03/27 10:15:14;;;;;;;32.15;6.15;;;11.30;99.90;;;;;;5096760;28;20047;-73
2022/03/27 10:17:45;;;;;;;29.23;7.03;;;11.30;99.90;;;;;;5096562;28;20055;-73
2022/03/27 10:20:21;;;;;;;27.33;6.28;;;11.40;99.90;;;;;;5079045;28;20097;-74
2022/03/27 10:22:52;;;;;;;30.45;5.72;;;11.40;99.90;;;;;;5097004;28;20051;-74
2022/03/27 10:25:18;;;;;;;33.58;6.28;;;11.60;99.90;;;;;;5096675;28;20039;-74
2022/03/27 10:27:47;;;;;;;26.92;6.30;;;11.70;99.90;;;;;;5095524;28;20078;-74
2022/03/27 10:30:15;;;;;;;29.42;7.38;;;11.80;99.90;;;;;;5096342;28;20525;-75
2022/03/27 10:32:43;;;;;;;35.47;8.10;;;11.90;99.90;;;;;;5096385;28;20051;-73
2022/03/27 10:35:51;;;;;;;42.42;7.95;;;12.10;99.90;;;;;;5113845;28;20047;-74
2022/03/27 10:38:38;;;;;;;28.30;6.30;;;12.10;99.90;;;;;;5096446;28;20074;-74
2022/03/27 10:41:20;;;;;;;22.00;4.78;;;12.20;99.90;;;;;;5113438;28;20406;-75
2022/03/27 10:43:50;;;;;;;30.27;7.30;;;12.30;99.90;;;;;;5095961;28;20050;-73
2022/03/27 10:46:15;;;;;;;31.23;6.22;;;12.30;99.90;;;;;;5114268;28;20130;-73
2022/03/27 10:48:42;;;;;;;32.38;7.20;;;12.40;99.90;;;;;;5095213;28;20130;-73
2022/03/27 10:51:10;;;;;;;25.30;5.30;;;12.60;99.90;;;;;;5095568;28;20056;-73
2022/03/27 10:53:36;;;;;;;25.80;4.97;;;12.70;99.90;;;;;;5096031;28;20054;-73
2022/03/27 10:56:03;;;;;;;28.92;5.82;;;12.80;99.90;;;;;;5113400;28;20047;-74
2022/03/27 10:58:35;;;;;;;27.92;5.00;;;12.80;99.90;;;;;;5095868;28;20043;-74
2022/03/27 11:01:21;;;;;;;29.65;6.28;;;12.90;99.90;;;;;;5095846;28;20388;-73
2022/03/27 11:04:06;;;;;;;26.45;5.88;;;12.90;99.90;;;;;;5114202;28;20054;-74
2022/03/27 11:06:42;;;;;;;18.80;5.15;;;12.80;99.90;;;;;;5096053;28;20048;-73
2022/03/27 11:09:35;;;;;;;14.40;3.78;;;12.80;99.90;;;;;;5113149;28;20047;-73
2022/03/27 11:12:07;;;;;;;19.63;5.65;;;13.00;99.90;;;;;;5101993;28;20058;-73
2022/03/27 11:14:52;;;;;;;16.73;3.97;;;13.10;99.90;;;;;;5095751;28;20047;-73
2022/03/27 11:17:29;;;;;;;23.10;5.40;;;13.30;95.40;;;;;;5112700;28;20055;-73
2022/03/27 11:19:54;;;;;;;17.33;4.50;;;13.40;98.50;;;;;;5095781;28;20424;-73
2022/03/27 11:22:47;;;;;;;17.83;4.28;;;13.60;98.50;;;;;;5095888;28;20039;-73
2022/03/27 11:25:37;;;;;;;18.88;4.35;;;13.70;94.40;;;;;;5095412;28;20130;-73
2022/03/27 11:28:03;;;;;;;19.10;4.55;;;13.60;93.80;;;;;;5114008;28;20047;-73
2022/03/27 11:30:34;;;;;;;19.65;4.28;;;13.60;94.00;;;;;;5112862;28;20487;-73
2022/03/27 11:33:15;;;;;;;19.75;4.20;;;13.60;92.60;;;;;;5113601;28;20073;-73
2022/03/27 11:35:43;;;;;;;20.38;4.95;;;13.60;87.50;;;;;;5113831;28;20138;-74
2022/03/27 11:38:25;;;;;;;17.77;3.97;;;13.70;92.00;;;;;;5113113;28;20047;-73
2022/03/27 11:40:51;;;;;;;20.88;4.72;;;13.80;80.20;;;;;;5113455;28;20467;-73
2022/03/27 11:43:32;;;;;;;24.30;3.95;;;13.80;84.30;;;;;;5113814;28;20040;-73
2022/03/27 11:45:59;;;;;;;23.92;4.40;;;13.80;82.70;;;;;;5095689;28;20113;-73
2022/03/27 11:48:25;;;;;;;14.40;3.95;;;13.80;87.60;;;;;;5114150;28;20043;-73
2022/03/27 11:50:54;;;;;;;16.52;4.32;;;13.90;84.00;;;;;;5094345;28;20415;-73
2022/03/27 11:53:34;;;;;;;11.98;2.97;;;13.80;80.80;;;;;;5078559;28;20122;-73
2022/03/27 11:56:08;;;;;;;17.92;3.65;;;13.80;78.10;;;;;;5113701;28;20047;-74
2022/03/27 11:58:38;;;;;;;15.43;3.78;;;13.80;78.70;;;;;;5094710;28;20433;-73
2022/03/27 12:01:11;;;;;;;12.25;3.88;;;13.70;79.50;;;;;;5095269;28;20043;-73
2022/03/27 12:03:37;;;;;;;18.63;4.60;;;13.80;81.40;;;;;;5113341;28;20075;-73
2022/03/27 12:06:10;;;;;;;16.02;4.05;;;13.80;82.10;;;;;;5094545;28;20043;-74
2022/03/27 12:08:38;;;;;;;16.08;3.20;;;13.90;80.00;;;;;;5061799;28;20040;-73
2022/03/27 12:11:06;;;;;;;13.35;3.47;;;13.80;82.60;;;;;;5113201;28;20079;-73
2022/03/27 12:13:40;;;;;;;16.00;3.92;;;13.90;78.50;;;;;;5112719;28;20035;-73
2022/03/27 12:16:14;;;;;;;21.07;5.73;;;14.00;75.90;;;;;;5113568;28;20035;-74
2022/03/27 12:18:43;;;;;;;19.38;5.18;;;14.00;79.90;;;;;;5113340;28;20277;-73
2022/03/27 12:21:12;;;;;;;17.38;4.25;;;14.10;79.80;;;;;;5094897;28;20506;-73
2022/03/27 12:23:47;;;;;;;19.95;4.35;;;14.20;80.20;;;;;;5113441;28;20387;-73
2022/03/27 12:32:25;;;;;;;16.95;3.83;;;14.60;74.80;;;;;;5116743;28;20554;-73
2022/03/27 12:34:56;;;;;;;14.63;3.17;;;14.40;74.30;;;;;;5098122;28;20047;-73
2022/03/27 12:37:24;;;;;;;17.17;3.65;;;14.40;74.40;;;;;;5116822;28;20487;-73
2022/03/27 12:39:50;;;;;;;14.10;3.60;;;14.40;75.10;;;;;;5115846;28;20044;-74
2022/03/27 12:42:48;;;;;;;16.38;3.63;;;14.40;76.50;;;;;;5098553;28;20044;-73
2022/03/27 12:45:17;;;;;;;15.45;3.40;;;14.40;73.30;;;;;;5116549;28;20054;-73
2022/03/27 12:47:47;;;;;;;16.80;3.60;;;14.30;72.60;;;;;;5097470;28;20083;-74
2022/03/27 12:50:36;;;;;;;12.02;3.75;;;14.30;74.00;;;;;;5097993;28;20130;-73
2022/03/27 12:53:08;;;;;;;13.10;2.60;;;14.30;75.10;;;;;;5081194;28;20475;-73
2022/03/27 12:55:51;;;;;;;13.80;3.28;;;14.30;70.30;;;;;;5097284;28;20051;-73
2022/03/27 12:58:19;;;;;;;12.88;3.65;;;14.30;72.50;;;;;;5116459;28;20046;-73
2022/03/27 13:01:02;;;;;;;17.48;4.28;;;14.40;73.40;;;;;;5098333;28;20039;-73
2022/03/27 13:03:28;;;;;;;13.52;3.60;;;14.40;73.90;;;;;;5097956;28;20558;-72
2022/03/27 13:05:56;;;;;;;14.52;3.45;;;14.40;74.30;;;;;;5098049;28;20126;-72
2022/03/27 13:08:33;;;;;;;16.17;3.47;;;14.50;76.20;;;;;;5097347;28;20075;-73
2022/03/27 13:11:00;;;;;;;15.48;2.90;;;14.60;76.70;;;;;;5116274;28;20050;-72